x

Central Aleutians 230nm Sw Dutch Harbor (46072) Wave Buoy

7:50 - Thu 2nd Oct 2014 All times are UTC.

  • Sig Wave height 11.2ft
  • Peak Period 11s
  • Average Period 7s
  • Wind
    20mph, 22mph gusts
  • Sea Temp 50°f
  • Air Temp 49°f
  • Sea Pressure 1005.5mb

More Historic Weather Station data

Upgrade to MSW Pro to gain access to the past 30 days of data for over 8000 Wavebouys and Weather Stations around the globe.

Join Pro

Comparision Forecast

View Surf forecast
   
jeu. 10/02 7:50 11ft 11s 7s 20 22 mph 1005.5mb 50f 49f
6:50 12ft 11s 7s 20 25 mph 1005.6mb 50f 49f
5:50 13ft 11s 7s 22 27 mph 1005.4mb 50f 49f
4:50 11ft 11s 6s 22 27 mph 1005.3mb 50f 49f
3:50 12ft 11s 7s 25 29 mph 1005.5mb 50f 49f
2:50 12ft 10s 7s 25 27 mph 1005.7mb 50f 49f
1:50 12ft 10s 7s 18 22 mph 1006.4mb 50f 50f
12:50 11ft 10s 7s 18 22 mph 1006.9mb 50f 50f
mer. 10/01 11:50 12.5ft 10s 7s 20 22 mph 1007.7mb 50f 50f
10:50 12ft 10s 7s 20 22 mph 1008.2mb 50f 50f
9:50 12ft 10s 7s 20 25 mph 1008.6mb 50f 50f
8:50 11ft 10s 7s 20 25 mph 1008.6mb 50f 51f
7:50 11.5ft 10s 7s 22 27 mph 1008.5mb 51f 51f
6:50 12.5ft 11s 7s 22 27 mph 1008.5mb 51f 51f
5:50 12ft 11s 7s 25 29 mph 1008.6mb 51f 51f
4:50 13ft 10s 7s 25 29 mph 1008.6mb 51f 51f
3:50 12ft 10s 7s 25 29 mph 1008.6mb 51f 51f
2:50 12ft 10s 6s 25 29 mph 1008.6mb 51f 51f
1:50 11.5ft 11s 6s 27 31 mph 1008.9mb 51f 51f
12:50 12ft 10s 6s 29 34 mph 1009.3mb 51f 51f
11:50 13ft 10s 6s 27 34 mph 1009.6mb 51f 51f
10:50 12ft 10s 6s 29 34 mph 1009.9mb 51f 51f
9:50 13ft 10s 7s 27 31 mph 1010.5mb 51f 51f
8:50 13ft 9s 7s 27 31 mph 1010.8mb 51f 51f
7:50 13ft 10s 7s 25 31 mph 1011.2mb 51f 50f
6:50 13ft 10s 7s 25 29 mph 1010.9mb 51f 51f
5:50 13ft 10s 7s 27 31 mph 1010.8mb 51f 51f
4:50 12.5ft 9s 6s 27 34 mph 1010.4mb 51f 52f
3:50 12ft 9s 6s 25 31 mph 1010.2mb 51f 52f
2:50 12ft 10s 7s 25 31 mph 1010.3mb 50f 52f
1:50 12ft 9s 6s 25 29 mph 1010.2mb 50f 52f
12:50 11.5ft 9s 6s 25 29 mph 1010.7mb 50f 52f
mar. 09/30 11:50 12ft 9s 6s 29 36 mph 1010.9mb 50f 52f
10:50 12.5ft 10s 7s 27 34 mph 1011.3mb 50f 52f
9:50 13.5ft 10s 7s 29 36 mph 1011.4mb 50f 52f
8:50 14ft 10s 7s 29 34 mph 1011.7mb 50f 51f
7:50 13ft 10s 7s 29 36 mph 1011.8mb 50f 52f
6:50 13ft 10s 7s 29 36 mph 1011.6mb 50f 51f
5:50 14.5ft 10s 7s 29 36 mph 1011.4mb 50f 51f
4:50 13.5ft 10s 7s 29 38 mph 1011.1mb 50f 51f
3:50 13ft 9s 6s 27 31 mph 1011.2mb 50f 51f
2:50 13ft 9s 6s 29 36 mph 1011mb 50f 51f
1:50 14ft 9s 7s 29 36 mph 1011.3mb 50f 51f
12:50 15ft 9s 7s 29 38 mph 1011.3mb 50f 52f
11:50 13.5ft 9s 6s 29 36 mph 1011.3mb 50f 52f
10:50 12.5ft 10s 6s 31 38 mph 1011mb 50f 52f
9:50 14.5ft 9s 7s 29 38 mph 1011.3mb 50f 52f
8:50 13.5ft 9s 6s 31 40 mph 1011.3mb 50f 51f
7:50 14.5ft 9s 7s 29 34 mph 1011.4mb 50f 52f
6:50 13ft 9s 6s 31 36 mph 1011mb 49f 52f
5:50 14.5ft 10s 7s 29 36 mph 1010.5mb 49f 52f
4:50 15ft 9s 7s 29 38 mph 1010.3mb 50f 51f
3:50 15.5ft 9s 7s 31 38 mph 1009.8mb 50f 52f
2:50 15ft 10s 7s 31 38 mph 1009.5mb 50f 52f
1:50 14.5ft 9s 7s 31 38 mph 1009.1mb 49f 52f
12:50 14ft 8s 6s 31 38 mph 1008.9mb 50f 52f
lun. 09/29 11:50 14.5ft 9s 7s 31 38 mph 1008.9mb 50f 52f
10:50 13ft 9s 6s 34 43 mph 1008.8mb 50f 52f
9:50 16ft 8s 7s 34 40 mph 1008.9mb 50f 52f
8:50 13ft 9s 6s 34 43 mph 1008.6mb 50f 52f
7:50 14.5ft 10s 7s 34 45 mph 1008.5mb 50f 52f
6:50 14.5ft 10s 7s 31 38 mph 1008.2mb 50f 52f
5:50 14ft 10s 7s 34 43 mph 1007.7mb 50f 52f
4:50 13.5ft 10s 6s 34 43 mph 1007.4mb 50f 52f
3:50 15ft 10s 7s 34 40 mph 1007.2mb 50f 52f
2:50 15ft 8s 7s 34 40 mph 1007.1mb 50f 52f
1:50 14ft 8s 6s 36 45 mph 1007.1mb 49f 52f
12:50 15ft 9s 7s 34 40 mph 1007.6mb 49f 51f
11:50 14ft 8s 6s 36 45 mph 1007.4mb 49f 52f
10:50 12ft 8s 6s 34 43 mph 1008mb 50f 51f
9:50 13.5ft 8s 6s 31 43 mph 1008.3mb 50f 51f
8:50 13ft 8s 6s 31 40 mph 1008.5mb 50f 51f
7:50 13ft 13s 6s 31 40 mph 1008.4mb 49f 51f
6:50 14ft 10s 6s 31 38 mph 1008.4mb 49f 51f
5:50 14ft 10s 6s 31 40 mph 1008.4mb 49f 51f
4:50 13ft 14s 6s 31 38 mph 1008.2mb 49f 51f
3:50 14.5ft 10s 7s 29 38 mph 1008.2mb 49f 51f
2:50 13ft 11s 6s 29 36 mph 1008.1mb 49f 51f
1:50 12ft 7s 6s 29 34 mph 1008.2mb 49f 51f
12:50 13ft 11s 6s 29 34 mph 1008.7mb 49f 51f
dim. 09/28 11:50 12ft 10s 6s 29 34 mph 1009.1mb 49f 51f
10:50 12ft 10s 6s 27 34 mph 1009.6mb 49f 51f
9:50 12ft 11s 6s 27 31 mph 1010.1mb 49f 51f
8:50 12ft 8s 6s 29 34 mph 1010.2mb 49f 51f
7:50 11.5ft 10s 6s 29 34 mph 1010.3mb 50f 51f
6:50 10ft 8s 6s 27 34 mph 1010.3mb 50f 51f
5:50 9.5ft 7s 6s 27 34 mph 1010.4mb 50f 51f
4:50 9ft 7s 5s 27 34 mph 1010.5mb 49f 51f
3:50 9ft 7s 5s 25 31 mph 1010.7mb 50f 51f
2:50 8.5ft 7s 5s 25 31 mph 1011mb 50f 51f
1:50 8ft 6s 5s 25 31 mph 1011.5mb 50f 51f
12:50 7ft 6s 5s 25 29 mph 1011.9mb 50f 51f
11:50 6.5ft 6s 5s 25 29 mph 1011.8mb 49f 50f
10:50 7ft 5s 5s 20 25 mph 1012.8mb 49f 51f
9:50 6.5ft 6s 5s 22 27 mph 1013.2mb 50f 51f